Time;durP1;ratioP1;P1;durP2;ratioP2;P2;SDS_P1;SDS_P2;PMS_P1;PMS_P2;Temp;Humidity;BMP_temperature;BMP_pressure;BME280_temperature;BME280_humidity;BME280_pressure;Samples;Min_cycle;Max_cycle;Signal;HPM_P1;HPM_P2
2021/06/12 00:01:55;;;;;;;4.62;2.80;;;;;;;14.77;76.36;99762.61;1731635;80;20954;-73
2021/06/12 00:04:23;;;;;;;4.95;2.80;;;;;;;14.74;76.46;99766.07;1728566;81;21543;-72
2021/06/12 00:06:50;;;;;;;5.53;3.02;;;;;;;14.71;76.56;99761.09;1747233;81;20980;-72
2021/06/12 00:09:17;;;;;;;2.90;2.60;;;;;;;14.68;76.63;99766.75;1699735;82;21510;-72
2021/06/12 00:11:43;;;;;;;7.37;2.70;;;;;;;14.63;76.68;99763.23;1755047;79;21055;-72
2021/06/12 00:14:11;;;;;;;3.77;2.70;;;;;;;14.58;76.89;99762.90;1739849;81;21090;-72
2021/06/12 00:16:39;;;;;;;5.60;3.08;;;;;;;14.52;76.98;99759.05;1765087;80;21102;-72
2021/06/12 00:19:07;;;;;;;3.77;2.70;;;;;;;14.51;77.31;99755.23;1748560;80;21003;-72
2021/06/12 00:21:36;;;;;;;4.17;2.75;;;;;;;14.52;77.49;99757.72;1750676;80;21739;-72
2021/06/12 00:24:07;;;;;;;4.10;2.80;;;;;;;14.57;77.83;99763.87;1764470;80;21027;-73
2021/06/12 00:26:33;;;;;;;4.30;3.15;;;;;;;;;;1750702;80;21062;-72
2021/06/12 00:29:00;;;;;;;3.70;3.30;;;;;;;14.67;77.90;99765.91;1728041;82;21346;-72
2021/06/12 00:31:27;;;;;;;6.72;2.85;;;;;;;14.69;78.21;99768.41;1708793;81;21073;-72
2021/06/12 00:33:54;;;;;;;3.62;3.25;;;;;;;14.74;78.35;99765.57;1760413;80;21816;-72
2021/06/12 00:36:21;;;;;;;3.55;3.00;;;;;;;14.77;78.41;99758.63;1745296;80;20968;-72
2021/06/12 00:38:50;;;;;;;4.28;2.83;;;;;;;14.83;78.43;99767.75;1769856;80;21043;-72
2021/06/12 00:41:18;;;;;;;5.62;3.05;;;;;;;14.88;78.49;99769.44;1769954;80;21039;-72
2021/06/12 00:43:45;;;;;;;5.60;3.00;;;;;;;14.93;78.44;99769.76;1770351;79;21063;-72
2021/06/12 00:46:12;;;;;;;3.52;2.87;;;;;;;14.95;78.24;99766.43;1763920;79;21858;-72
2021/06/12 00:48:42;;;;;;;4.28;3.10;;;;;;;14.91;77.99;99761.12;1764669;80;21079;-72
2021/06/12 00:51:09;;;;;;;4.25;3.17;;;;;;;14.89;78.16;99766.61;1750739;80;20983;-72
2021/06/12 00:53:41;;;;;;;5.35;3.20;;;;;;;14.90;78.14;99767.44;1757600;80;20979;-72
2021/06/12 00:56:14;;;;;;;3.98;2.05;;;;;;;14.89;78.13;99769.77;1745672;80;21031;-72
2021/06/12 00:58:42;;;;;;;4.58;2.67;;;;;;;14.87;77.96;99773.92;1763809;80;21824;-72
2021/06/12 01:01:13;;;;;;;6.65;2.90;;;;;;;14.85;78.03;99767.91;1768723;80;20953;-72
2021/06/12 01:03:40;;;;;;;3.80;3.10;;;;;;;14.82;77.93;99773.56;1755242;79;21605;-72
2021/06/12 01:06:09;;;;;;;4.00;3.25;;;;;;;14.79;77.98;99767.26;1769114;80;21032;-72
2021/06/12 01:08:37;;;;;;;3.22;2.80;;;;;;;14.76;78.04;99770.22;1740845;80;21074;-72
2021/06/12 01:11:05;;;;;;;7.00;3.50;;;;;;;14.73;78.06;99769.23;1730942;81;21834;-72
2021/06/12 01:13:42;;;;;;;7.80;3.00;;;;;;;14.68;78.05;99766.75;1737886;81;21429;-72
2021/06/12 01:16:24;;;;;;;3.83;2.90;;;;;;;14.67;78.15;99767.24;1755120;79;21039;-72
2021/06/12 01:18:51;;;;;;;3.92;2.92;;;;;;;14.66;78.05;99767.38;1764406;80;21008;-71
2021/06/12 01:21:26;;;;;;;6.15;3.30;;;;;;;14.60;78.12;99761.73;1738979;82;21004;-71
2021/06/12 01:24:15;;;;;;;3.35;2.90;;;;;;;14.59;78.39;99761.41;1679928;83;21852;-71
2021/06/12 01:27:10;;;;;;;6.40;3.40;;;;;;;14.62;78.48;99760.73;1727608;82;21228;-72
2021/06/12 01:30:08;;;;;;;3.65;2.98;;;;;;;14.63;78.63;99760.57;1698417;82;20972;-71
2021/06/12 01:32:39;;;;;;;3.55;3.12;;;;;;;14.61;78.56;99755.92;1768370;80;21332;-72
2021/06/12 01:35:13;;;;;;;6.08;3.95;;;;;;;14.56;78.60;99760.38;1759840;80;20979;-72
2021/06/12 01:37:42;;;;;;;6.42;3.60;;;;;;;14.53;78.80;99754.07;1742429;79;21813;-71
2021/06/12 01:40:10;;;;;;;4.70;3.70;;;;;;;14.56;79.00;99761.70;1754132;79;21039;-72
2021/06/12 01:42:37;;;;;;;4.53;3.98;;;;;;;14.62;79.37;99763.39;1740742;80;21023;-71
2021/06/12 01:45:06;;;;;;;4.62;3.72;;;;;;;14.64;79.34;99767.55;1730990;80;20976;-72
2021/06/12 01:47:32;;;;;;;6.05;3.83;;;;;;;14.67;79.42;99765.05;1757210;80;20980;-72
2021/06/12 01:50:03;;;;;;;4.80;3.60;;;;;;;14.70;79.66;99754.11;1757976;80;21840;-71
2021/06/12 01:52:31;;;;;;;5.27;3.67;;;;;;;14.73;79.72;99768.40;1734659;80;21087;-72
2021/06/12 01:54:58;;;;;;;4.12;3.70;;;;;;;14.76;79.76;99768.89;1760934;80;21410;-72
2021/06/12 01:57:24;;;;;;;8.30;4.20;;;;;;;14.78;79.76;99769.59;1754198;79;21398;-72
2021/06/12 01:59:51;;;;;;;5.12;3.87;;;;;;;14.79;79.75;99772.58;1757442;80;21095;-72
2021/06/12 02:02:17;;;;;;;5.97;3.77;;;;;;;14.80;79.73;99766.26;1700092;82;21795;-72
2021/06/12 02:04:44;;;;;;;4.83;3.95;;;;;;;14.82;79.66;99762.10;1696874;83;21008;-72
2021/06/12 02:07:10;;;;;;;6.55;3.52;;;;;;;14.81;79.68;99759.11;1729713;81;21707;-71
2021/06/12 02:09:38;;;;;;;7.42;3.95;;;;;;;14.80;79.61;99753.47;1739210;82;21064;-71
2021/06/12 02:12:06;;;;;;;4.45;3.95;;;;;;;14.79;79.63;99755.80;1737730;82;21099;-72
2021/06/12 02:14:33;;;;;;;4.53;3.58;;;;;;;14.79;79.70;99756.63;1734534;81;21796;-72
2021/06/12 02:17:01;;;;;;;4.35;3.77;;;;;;;14.81;79.73;99763.93;1736664;82;21435;-76
2021/06/12 02:19:27;;;;;;;3.90;3.45;;;;;;;14.81;79.74;99764.43;1738565;81;21440;-72
2021/06/12 02:21:55;;;;;;;4.37;3.62;;;;;;;14.81;79.73;99761.77;1735997;81;21448;-71
2021/06/12 02:24:21;;;;;;;6.75;3.87;;;;;;;14.84;79.65;99769.41;1686582;83;21190;-72
2021/06/12 02:26:52;;;;;;;4.55;3.70;;;;;;;14.87;79.68;99769.94;1736158;81;21765;-73
2021/06/12 02:29:18;;;;;;;5.75;3.75;;;;;;;14.88;79.65;99765.45;1737427;82;21019;-71
2021/06/12 02:31:52;;;;;;;6.62;3.90;;;;;;;14.88;79.61;99770.27;1718485;82;21091;-71
2021/06/12 02:34:19;;;;;;;3.92;3.58;;;;;;;14.87;79.50;99778.41;1737678;82;21135;-71
2021/06/12 02:36:45;;;;;;;6.33;3.80;;;;;;;14.85;79.55;99777.22;1738284;81;21094;-72
2021/06/12 02:39:12;;;;;;;3.98;3.58;;;;;;;14.83;79.47;99779.22;1730205;81;22191;-73
2021/06/12 02:41:39;;;;;;;5.83;4.00;;;;;;;14.83;79.72;99774.40;1718502;82;21012;-72
2021/06/12 02:44:06;;;;;;;5.58;3.77;;;;;;;14.85;79.77;99772.41;1737888;82;21001;-73
2021/06/12 02:46:35;;;;;;;5.10;3.72;;;;;;;14.89;79.84;99771.09;1739927;82;21024;-72
2021/06/12 02:49:06;;;;;;;4.40;3.50;;;;;;;14.91;79.83;99770.42;1731520;81;20976;-71
2021/06/12 02:51:36;;;;;;;5.70;3.70;;;;;;;14.96;79.74;99772.58;1726501;82;21854;-71
2021/06/12 02:54:02;;;;;;;5.03;3.98;;;;;;;14.95;79.67;99775.73;1736617;81;21558;-71
2021/06/12 02:56:31;;;;;;;3.75;3.33;;;;;;;14.95;79.64;99773.08;1739085;82;21084;-71
2021/06/12 02:59:04;;;;;;;5.20;3.90;;;;;;;14.97;79.53;99773.77;1737844;82;21035;-71
2021/06/12 03:01:31;;;;;;;;;;;;;;;14.98;79.51;99778.59;1740940;81;21628;-71
2021/06/12 03:03:58;;;;;;;6.87;4.00;;;;;;;14.97;79.56;99780.92;1738354;82;21711;-71
2021/06/12 03:06:24;;;;;;;6.40;3.77;;;;;;;14.98;79.63;99777.26;1738423;81;20956;-72
2021/06/12 03:08:52;;;;;;;5.22;4.12;;;;;;;15.03;79.69;99778.91;1706740;82;21088;-71
2021/06/12 03:11:18;;;;;;;3.90;3.47;;;;;;;15.08;79.73;99777.94;1738804;81;21001;-72
2021/06/12 03:13:46;;;;;;;4.10;3.62;;;;;;;15.14;79.67;99784.73;1753416;80;21161;-71
2021/06/12 03:16:14;;;;;;;6.35;4.00;;;;;;;15.18;79.68;99782.59;1741155;80;22617;-71
2021/06/12 03:18:46;;;;;;;5.03;3.90;;;;;;;15.23;79.69;99781.58;1759763;79;21036;-71
2021/06/12 03:21:11;;;;;;;4.35;3.92;;;;;;;15.28;79.67;99782.42;1759259;80;21082;-72
2021/06/12 03:23:37;;;;;;;4.45;4.03;;;;;;;15.32;79.61;99783.74;1754785;80;21043;-71
2021/06/12 03:26:03;;;;;;;4.55;3.62;;;;;;;15.35;79.57;99784.27;1775669;79;21475;-72
2021/06/12 03:28:30;;;;;;;5.20;3.80;;;;;;;15.40;79.60;99785.91;1785317;78;21738;-77
2021/06/12 03:31:03;;;;;;;4.95;4.12;;;;;;;15.44;79.60;99788.59;1725822;80;20995;-75
2021/06/12 03:33:30;;;;;;;4.67;3.98;;;;;;;15.49;79.59;99788.56;1736446;82;21643;-72
2021/06/12 03:35:56;;;;;;;6.17;4.33;;;;;;;15.55;79.52;99790.56;1720646;81;21073;-71
2021/06/12 03:38:22;;;;;;;7.30;4.10;;;;;;;15.60;79.40;99785.55;1720568;81;21592;-72
2021/06/12 03:40:49;;;;;;;6.85;4.30;;;;;;;15.64;79.37;99794.42;1739064;81;21789;-73
2021/06/12 03:43:16;;;;;;;5.58;3.92;;;;;;;15.68;79.18;99793.06;1709143;82;21016;-71
2021/06/12 03:45:43;;;;;;;4.62;4.12;;;;;;;15.72;78.99;99796.21;1766731;80;21015;-71
2021/06/12 03:48:10;;;;;;;4.90;4.40;;;;;;;15.74;78.81;99792.91;1757860;79;21054;-72
2021/06/12 03:50:40;;;;;;;5.92;4.35;;;;;;;15.78;78.78;99792.05;1732690;80;21015;-71
2021/06/12 03:53:07;;;;;;;6.33;4.37;;;;;;;15.81;78.73;99795.20;1730330;80;22041;-72
2021/06/12 03:55:35;;;;;;;5.22;3.70;;;;;;;15.86;78.65;99794.20;1740333;81;21016;-72
2021/06/12 03:58:01;;;;;;;6.28;4.17;;;;;;;15.90;78.39;99789.36;1740834;81;21063;-72
2021/06/12 04:00:31;;;;;;;4.78;4.33;;;;;;;15.93;78.15;99795.20;1752764;79;21070;-73
2021/06/12 04:02:58;;;;;;;5.50;3.72;;;;;;;15.97;78.11;99799.17;1723638;80;20972;-72
2021/06/12 04:05:24;;;;;;;4.30;3.90;;;;;;;16.03;78.06;99799.83;1739606;81;21726;-73
2021/06/12 04:07:52;;;;;;;4.78;4.28;;;;;;;16.10;78.01;99795.95;1756149;80;20922;-71
2021/06/12 04:10:18;;;;;;;5.10;3.92;;;;;;;16.17;77.92;99800.11;1771220;79;20968;-71
2021/06/12 04:12:45;;;;;;;4.97;3.85;;;;;;;16.21;77.69;99802.74;1743402;80;20949;-71
2021/06/12 04:15:13;;;;;;;4.40;4.00;;;;;;;16.26;77.59;99804.41;1766121;80;20976;-72
2021/06/12 04:17:41;;;;;;;4.83;3.80;;;;;;;16.33;77.51;99807.22;1762852;80;21815;-72
2021/06/12 04:20:10;;;;;;;4.85;4.05;;;;;;;16.39;77.21;99807.34;1747912;79;21019;-71
2021/06/12 04:22:36;;;;;;;5.22;4.20;;;;;;;16.45;77.06;99809.83;1737750;81;21047;-71
2021/06/12 04:25:04;;;;;;;4.70;3.77;;;;;;;16.50;76.79;99811.45;1772828;80;20933;-71
2021/06/12 04:27:33;;;;;;;5.22;4.47;;;;;;;16.55;76.61;99813.12;1766345;79;21102;-74
2021/06/12 04:30:00;;;;;;;6.00;4.33;;;;;;;16.60;76.31;99812.94;1760728;80;22649;-72
2021/06/12 04:32:26;;;;;;;5.83;4.65;;;;;;;16.64;76.19;99809.41;1742010;80;21106;-72
2021/06/12 04:34:53;;;;;;;5.78;4.40;;;;;;;16.67;76.03;99808.22;1762834;80;20996;-71
2021/06/12 04:37:19;;;;;;;5.87;4.12;;;;;;;16.71;76.10;99816.25;1753070;79;20980;-71
2021/06/12 04:39:46;;;;;;;4.60;4.03;;;;;;;16.77;76.12;99819.53;1748085;79;20960;-73
2021/06/12 04:42:13;;;;;;;6.65;4.25;;;;;;;16.84;75.93;99817.32;1763020;80;21808;-72
2021/06/12 04:44:39;;;;;;;7.10;3.92;;;;;;;16.91;75.76;99813.97;1744809;80;20879;-75
2021/06/12 04:47:06;;;;;;;6.50;4.28;;;;;;;16.98;75.71;99819.73;1752790;79;20976;-72
2021/06/12 04:49:32;;;;;;;5.12;4.67;;;;;;;17.04;75.70;99820.36;1760390;79;20941;-71
2021/06/12 04:51:59;;;;;;;4.17;3.72;;;;;;;17.09;75.34;99829.19;1743057;80;21000;-72
2021/06/12 04:54:25;;;;;;;4.10;3.70;;;;;;;17.14;75.32;99830.81;1767295;79;21425;-72
2021/06/12 04:56:52;;;;;;;5.70;4.28;;;;;;;17.21;75.44;99825.09;1772090;80;21373;-72
2021/06/12 04:59:18;;;;;;;4.40;3.98;;;;;;;17.28;75.30;99828.72;1769003;79;20995;-72
2021/06/12 05:01:44;;;;;;;6.12;4.60;;;;;;;17.34;75.19;99823.98;1754304;79;21131;-72
2021/06/12 05:04:11;;;;;;;4.95;4.20;;;;;;;17.43;74.81;99819.41;1758272;80;21288;-72
2021/06/12 05:06:38;;;;;;;4.30;3.87;;;;;;;17.46;74.19;99825.72;1762916;80;22243;-72
2021/06/12 05:09:05;;;;;;;4.33;3.92;;;;;;;17.51;74.19;99826.02;1739066;80;20975;-72
2021/06/12 05:11:32;;;;;;;5.37;3.80;;;;;;;17.58;74.05;99822.97;1729560;80;21374;-75
2021/06/12 05:13:58;;;;;;;4.17;3.50;;;;;;;17.65;73.80;99823.05;1763400;80;20949;-71
2021/06/12 05:16:25;;;;;;;4.28;3.50;;;;;;;17.71;73.46;99819.20;1759393;80;20956;-72
2021/06/12 05:18:52;;;;;;;5.28;3.25;;;;;;;17.82;73.18;99825.94;1742470;79;21465;-70
2021/06/12 05:21:18;;;;;;;5.03;3.30;;;;;;;17.91;73.11;99826.18;1743761;79;21505;-76
2021/06/12 05:23:45;;;;;;;3.30;3.00;;;;;;;17.98;72.18;99819.61;1733607;81;21013;-70
2021/06/12 05:26:13;;;;;;;3.30;3.00;;;;;;;18.07;72.00;99823.03;1765949;80;21119;-71
2021/06/12 05:28:40;;;;;;;2.75;2.55;;;;;;;18.14;71.18;99824.75;1743327;80;21046;-72
2021/06/12 05:31:07;;;;;;;5.05;2.67;;;;;;;18.23;70.19;99820.16;1773781;79;21828;-72
2021/06/12 05:33:33;;;;;;;2.83;2.50;;;;;;;18.28;69.81;99822.61;1748373;80;21053;-71
2021/06/12 05:36:01;;;;;;;3.75;2.80;;;;;;;18.34;69.75;99822.90;1728502;82;21493;-78
2021/06/12 05:38:27;;;;;;;4.20;2.60;;;;;;;18.40;69.65;99826.14;1746355;80;21052;-76
2021/06/12 05:40:54;;;;;;;3.20;2.60;;;;;;;18.41;69.42;99824.62;1748850;79;21094;-74
2021/06/12 05:43:23;;;;;;;4.70;2.90;;;;;;;18.43;69.21;99822.61;1760422;79;21640;-71
2021/06/12 05:45:49;;;;;;;3.35;2.70;;;;;;;18.45;69.16;99823.25;1761478;80;21463;-70
2021/06/12 05:48:17;;;;;;;3.12;2.70;;;;;;;18.50;69.19;99818.16;1757512;79;21063;-71
2021/06/12 05:50:44;;;;;;;2.83;2.52;;;;;;;18.56;69.50;99820.09;1737373;80;21025;-71
2021/06/12 05:53:10;;;;;;;3.08;2.40;;;;;;;18.69;69.34;99823.97;1757666;80;20975;-72
2021/06/12 05:55:38;;;;;;;3.75;2.58;;;;;;;18.74;68.06;99825.08;1772654;80;21833;-75
2021/06/12 05:58:04;;;;;;;2.62;2.30;;;;;;;18.79;67.62;99826.67;1758070;79;20900;-75
2021/06/12 06:00:31;;;;;;;2.85;2.58;;;;;;;18.82;67.34;99826.31;1760478;79;20956;-76
2021/06/12 06:02:57;;;;;;;3.30;2.47;;;;;;;18.80;67.20;99822.97;1745278;80;20998;-76
2021/06/12 06:05:24;;;;;;;3.35;2.90;;;;;;;18.82;67.16;99822.81;1710285;80;21006;-76
2021/06/12 06:07:52;;;;;;;3.45;2.80;;;;;;;18.80;67.21;99827.49;1755225;79;22232;-76
2021/06/12 06:10:18;;;;;;;3.55;2.75;;;;;;;18.81;67.44;99823.29;1758689;80;21082;-78
2021/06/12 06:12:46;;;;;;;4.47;2.58;;;;;;;18.89;67.74;99825.03;1756930;79;20948;-78
2021/06/12 06:15:15;;;;;;;6.53;3.27;;;;;;;19.00;67.86;99819.69;1745169;79;20984;-78
2021/06/12 06:17:42;;;;;;;4.62;2.70;;;;;;;19.10;67.18;99822.37;1763606;80;21028;-79
2021/06/12 06:20:10;;;;;;;4.80;2.62;;;;;;;19.12;66.61;99827.05;1738192;80;21856;-74
2021/06/12 06:22:37;;;;;;;6.28;2.90;;;;;;;19.14;66.60;99828.19;1749513;80;20972;-73
2021/06/12 06:25:05;;;;;;;7.28;2.83;;;;;;;19.20;65.95;99827.92;1773772;79;20921;-73
2021/06/12 06:27:32;;;;;;;2.85;2.55;;;;;;;19.21;66.17;99819.72;1739983;82;21395;-73
2021/06/12 06:29:59;;;;;;;4.42;2.37;;;;;;;19.22;64.86;99822.72;1736752;80;21076;-71
2021/06/12 06:32:26;;;;;;;4.83;2.65;;;;;;;19.23;65.41;99823.03;1737812;80;21816;-75
2021/06/12 06:34:52;;;;;;;3.27;2.70;;;;;;;19.35;65.32;99825.51;1753176;79;21035;-75
2021/06/12 06:37:20;;;;;;;3.62;2.33;;;;;;;19.45;65.30;99823.84;1775584;78;20984;-72
2021/06/12 06:39:47;;;;;;;2.50;2.30;;;;;;;19.57;64.90;99820.16;1754397;79;21027;-72
2021/06/12 06:42:14;;;;;;;4.20;2.50;;;;;;;19.67;64.54;99823.33;1755172;80;21126;-72
2021/06/12 06:44:40;;;;;;;3.62;2.37;;;;;;;19.79;63.94;99830.35;1762419;78;21886;-76
2021/06/12 06:47:08;;;;;;;4.97;2.40;;;;;;;19.86;63.49;99819.97;1725318;80;21545;-72
2021/06/12 06:49:35;;;;;;;2.90;2.40;;;;;;;19.92;63.03;99830.44;1753119;79;21007;-72
2021/06/12 06:52:03;;;;;;;3.60;2.40;;;;;;;19.97;63.08;99827.47;1751446;80;21000;-72
2021/06/12 06:54:31;;;;;;;3.50;2.30;;;;;;;20.01;62.88;99827.41;1729212;80;21498;-72
2021/06/12 06:56:58;;;;;;;2.47;2.00;;;;;;;20.10;62.64;99828.09;1745493;81;21808;-72
2021/06/12 06:59:25;;;;;;;3.40;2.10;;;;;;;20.22;62.80;99827.02;1746072;80;20963;-72
2021/06/12 07:01:51;;;;;;;2.70;1.92;;;;;;;20.31;61.75;99833.87;1744339;80;21185;-73
2021/06/12 07:04:18;;;;;;;2.58;2.30;;;;;;;20.33;60.46;99838.52;1745161;80;21563;-72
2021/06/12 07:06:46;;;;;;;2.55;2.08;;;;;;;20.32;61.02;99834.70;1747733;80;21613;-72
2021/06/12 07:09:12;;;;;;;2.42;2.10;;;;;;;20.36;60.45;99838.12;1721921;81;21801;-72
2021/06/12 07:11:39;;;;;;;2.85;2.00;;;;;;;20.38;60.13;99833.41;1722083;81;21040;-73
2021/06/12 07:14:06;;;;;;;2.30;1.98;;;;;;;20.43;60.50;99831.48;1729666;81;21409;-72
2021/06/12 07:16:32;;;;;;;3.02;1.98;;;;;;;20.48;59.60;99823.69;1705738;83;21088;-72
2021/06/12 07:18:59;;;;;;;3.45;2.10;;;;;;;20.49;60.30;99824.83;1675772;83;21003;-71
2021/06/12 07:21:26;;;;;;;3.70;2.30;;;;;;;20.63;60.55;99816.82;1662678;83;22234;-72
2021/06/12 07:23:53;;;;;;;2.25;2.00;;;;;;;20.73;60.07;99820.78;1703131;81;21009;-72
2021/06/12 07:26:20;;;;;;;1.98;1.80;;;;;;;20.86;60.36;99825.38;1737447;82;21020;-72
2021/06/12 07:28:46;;;;;;;4.70;2.00;;;;;;;21.00;59.90;99823.03;1748127;82;21013;-73
2021/06/12 07:31:13;;;;;;;6.60;1.95;;;;;;;21.11;59.39;99828.33;1732266;81;21163;-72
2021/06/12 07:33:40;;;;;;;2.05;1.85;;;;;;;21.14;59.19;99829.28;1765583;80;21884;-72
2021/06/12 07:36:07;;;;;;;2.40;1.80;;;;;;;21.18;57.68;99836.41;1755590;79;20928;-73
2021/06/12 07:38:34;;;;;;;2.00;1.50;;;;;;;21.05;56.97;99838.04;1754673;79;21008;-72
2021/06/12 07:41:01;;;;;;;6.05;1.75;;;;;;;20.98;57.70;99838.53;1755990;80;20960;-72
2021/06/12 07:43:28;;;;;;;3.60;2.17;;;;;;;21.01;58.01;99841.31;1725733;81;21043;-72
2021/06/12 07:45:55;;;;;;;1.77;1.67;;;;;;;21.05;57.05;99835.88;1736804;81;21837;-72
2021/06/12 07:48:21;;;;;;;2.52;1.90;;;;;;;21.10;56.84;99831.53;1736916;81;20996;-72
2021/06/12 07:50:49;;;;;;;4.53;1.95;;;;;;;21.20;57.12;99822.25;1723652;81;21076;-72
2021/06/12 07:53:15;;;;;;;6.47;2.02;;;;;;;21.38;57.92;99829.23;1699783;81;21428;-73
2021/06/12 07:55:43;;;;;;;2.80;1.85;;;;;;;21.59;58.13;99827.69;1707944;81;20937;-73
2021/06/12 07:58:10;;;;;;;2.15;1.95;;;;;;;21.79;57.45;99825.52;1713857;80;21801;-73
2021/06/12 08:00:37;;;;;;;3.33;2.10;;;;;;;21.98;58.04;99832.22;1705327;81;21460;-72
2021/06/12 08:03:03;;;;;;;3.90;2.00;;;;;;;22.13;56.60;99833.37;1710056;81;20949;-73
2021/06/12 08:05:30;;;;;;;4.70;2.00;;;;;;;22.06;56.61;99824.45;1730954;81;21146;-73
2021/06/12 08:07:58;;;;;;;2.33;1.90;;;;;;;22.03;55.81;99833.47;1707976;81;21087;-73
2021/06/12 08:10:26;;;;;;;2.85;1.92;;;;;;;21.99;55.07;99827.66;1723669;81;22443;-73
2021/06/12 08:12:52;;;;;;;2.12;1.82;;;;;;;22.01;55.68;99835.02;1720243;81;21253;-73
2021/06/12 08:15:19;;;;;;;2.15;1.82;;;;;;;22.17;55.12;99836.45;1746261;80;21056;-73
2021/06/12 08:17:46;;;;;;;2.00;1.80;;;;;;;22.20;54.12;99831.50;1707923;81;21020;-73
2021/06/12 08:20:14;;;;;;;3.60;1.80;;;;;;;22.12;55.03;99837.10;1713982;81;20957;-73
2021/06/12 08:22:41;;;;;;;2.92;1.90;;;;;;;22.12;54.79;99843.83;1706557;83;21468;-73
2021/06/12 08:25:09;;;;;;;5.28;1.70;;;;;;;22.08;55.48;99841.75;1714953;81;21060;-74
2021/06/12 08:27:37;;;;;;;1.95;1.82;;;;;;;22.16;55.24;99834.28;1719569;81;21039;-73
2021/06/12 08:30:05;;;;;;;2.10;1.82;;;;;;;22.31;55.21;99841.30;1709024;81;20970;-73
2021/06/12 08:32:32;;;;;;;2.10;1.90;;;;;;;22.49;54.85;99836.91;1710552;81;20966;-73
2021/06/12 08:34:59;;;;;;;1.67;1.57;;;;;;;22.59;54.42;99833.77;1712880;81;22474;-74
2021/06/12 08:37:26;;;;;;;2.20;1.90;;;;;;;22.69;55.36;99831.45;1767209;80;20951;-73
2021/06/12 08:39:54;;;;;;;2.85;1.75;;;;;;;22.91;55.06;99840.59;1759345;79;20951;-74
2021/06/12 08:42:21;;;;;;;2.72;2.02;;;;;;;23.01;52.47;99836.38;1739404;81;21382;-74
2021/06/12 08:44:48;;;;;;;2.30;1.47;;;;;;;22.94;51.81;99832.06;1718939;81;21087;-74
2021/06/12 08:47:15;;;;;;;2.62;1.70;;;;;;;22.89;52.38;99827.34;1741134;80;21785;-74
2021/06/12 08:49:41;;;;;;;2.33;1.67;;;;;;;22.72;51.83;99834.22;1757934;80;21467;-73
2021/06/12 08:52:08;;;;;;;2.02;1.80;;;;;;;22.38;52.35;99834.84;1767117;80;21538;-73
2021/06/12 08:54:35;;;;;;;2.00;1.85;;;;;;;22.23;53.78;99841.83;1752407;79;21059;-73
2021/06/12 08:57:02;;;;;;;2.02;1.65;;;;;;;22.24;53.68;99834.06;1752731;79;20956;-73
2021/06/12 08:59:34;;;;;;;2.15;1.80;;;;;;;22.22;53.51;99833.45;1764548;80;21819;-73
2021/06/12 09:01:58;;;;;;;2.95;1.80;;;;;;;22.18;53.70;99841.63;1757283;79;21539;-73
2021/06/12 09:04:30;;;;;;;1.50;1.27;;;;;;;22.15;53.68;99838.02;1766898;78;21063;-74
2021/06/12 09:07:29;;;;;;;1.42;1.32;;;;;;;22.30;52.61;99841.00;1705297;81;21435;-73
2021/06/12 09:09:57;;;;;;;1.70;1.40;;;;;;;22.54;52.13;99830.88;1746297;81;21435;-72
2021/06/12 09:12:48;;;;;;;3.35;1.52;;;;;;;22.74;50.82;99814.11;1729830;81;21833;-72
2021/06/12 09:15:19;;;;;;;3.92;1.35;;;;;;;22.81;51.02;99818.95;1715869;82;21465;-72
2021/06/12 09:17:48;;;;;;;1.70;1.40;;;;;;;22.87;48.85;99821.84;1722903;81;20978;-74
2021/06/12 09:20:21;;;;;;;3.12;1.50;;;;;;;22.88;47.86;99817.61;1723823;81;21010;-73
2021/06/12 09:22:53;;;;;;;2.52;1.50;;;;;;;22.91;48.64;99821.73;1721974;81;27082;-72
2021/06/12 09:25:38;;;;;;;1.50;1.40;;;;;;;23.02;48.92;99823.73;1698814;80;21845;-72
2021/06/12 09:28:05;;;;;;;1.98;1.50;;;;;;;23.26;48.37;99815.39;1707555;82;21146;-72
2021/06/12 09:30:33;;;;;;;1.60;1.50;;;;;;;23.47;49.20;99816.39;1703123;81;21096;-72
2021/06/12 09:32:59;;;;;;;3.72;1.60;;;;;;;23.74;48.76;99820.23;1776204;79;21055;-72
2021/06/12 09:35:37;;;;;;;1.72;1.62;;;;;;;23.90;47.98;99819.16;1786162;78;21004;-72
2021/06/12 09:38:24;;;;;;;2.67;1.50;;;;;;;24.03;48.93;99818.71;1795152;78;21786;-72
2021/06/12 09:40:50;;;;;;;2.20;1.80;;;;;;;24.22;49.16;99807.73;1721194;81;21009;-73
2021/06/12 09:43:30;;;;;;;1.70;1.42;;;;;;;24.37;47.67;99811.42;1732154;80;21019;-72
2021/06/12 09:45:56;;;;;;;1.75;1.55;;;;;;;24.31;46.95;99812.31;1726235;80;21047;-72
2021/06/12 09:48:23;;;;;;;2.22;1.70;;;;;;;24.16;48.81;99801.88;1734282;80;21446;-73
2021/06/12 09:51:15;;;;;;;1.75;1.65;;;;;;;24.31;48.60;99804.72;1724318;81;22213;-72
2021/06/12 09:53:56;;;;;;;2.85;1.80;;;;;;;24.47;48.07;99809.02;1749113;81;21057;-72
2021/06/12 09:56:25;;;;;;;3.67;2.10;;;;;;;24.48;48.33;99805.80;1744780;79;20944;-74
2021/06/12 09:58:53;;;;;;;5.50;2.10;;;;;;;24.52;47.66;99815.94;1749916;79;21008;-73
2021/06/12 10:01:24;;;;;;;2.30;1.92;;;;;;;24.48;45.90;99811.20;1752124;80;21486;-74
2021/06/12 10:04:09;;;;;;;2.40;1.75;;;;;;;24.50;47.21;99812.61;1759357;80;22442;-73
2021/06/12 10:06:36;;;;;;;2.12;1.92;;;;;;;24.67;48.36;99799.33;1764913;79;20924;-73
2021/06/12 10:09:04;;;;;;;7.92;2.12;;;;;;;24.81;46.85;99795.94;1764372;80;21176;-73
2021/06/12 10:11:31;;;;;;;1.98;1.70;;;;;;;24.93;46.63;99788.69;1765746;80;21048;-74
2021/06/12 10:13:59;;;;;;;2.58;1.90;;;;;;;25.10;46.50;99797.83;1728887;78;21029;-73
2021/06/12 10:16:29;;;;;;;2.58;1.90;;;;;;;25.20;45.76;99795.09;1753802;80;21248;-73
2021/06/12 10:18:56;;;;;;;4.40;1.92;;;;;;;25.17;45.71;99788.25;1730868;80;20976;-74
2021/06/12 10:21:23;;;;;;;2.05;1.85;;;;;;;25.12;46.59;99797.59;1758584;80;20925;-73
2021/06/12 10:23:50;;;;;;;2.22;1.80;;;;;;;24.99;42.86;99799.09;1756433;79;21339;-73
2021/06/12 10:26:19;;;;;;;1.92;1.62;;;;;;;24.87;43.40;99781.50;1751045;80;21095;-72
2021/06/12 10:28:47;;;;;;;1.30;1.20;;;;;;;24.98;42.76;99788.81;1758377;79;21798;-74
2021/06/12 10:31:18;;;;;;;1.35;1.20;;;;;;;25.20;41.79;99778.88;1752105;80;21005;-75
2021/06/12 10:33:48;;;;;;;1.55;1.40;;;;;;;25.33;39.09;99778.66;1737571;80;21484;-74
2021/06/12 10:36:25;;;;;;;3.55;1.40;;;;;;;25.35;40.37;99783.30;1765216;80;21060;-73
2021/06/12 10:38:53;;;;;;;1.47;1.37;;;;;;;25.53;41.33;99777.80;1753103;80;21048;-73
2021/06/12 10:41:22;;;;;;;2.75;1.75;;;;;;;25.81;39.20;99769.55;1730296;80;21823;-72
2021/06/12 10:44:03;;;;;;;1.52;1.30;;;;;;;25.93;39.82;99769.83;1758088;80;21009;-73
2021/06/12 10:46:27;;;;;;;2.62;1.37;;;;;;;25.92;38.38;99762.78;1761178;80;20971;-74
2021/06/12 10:49:02;;;;;;;2.20;1.45;;;;;;;25.88;38.98;99764.33;1749970;80;21063;-75
2021/06/12 10:51:34;;;;;;;1.30;1.20;;;;;;;25.90;38.90;99769.49;1751046;79;20977;-75
2021/06/12 10:54:24;;;;;;;4.10;1.37;;;;;;;25.95;37.88;99766.35;1752618;80;22501;-74
2021/06/12 10:56:57;;;;;;;2.22;1.30;;;;;;;26.14;39.28;99756.20;1717269;81;21064;-72
2021/06/12 10:59:48;;;;;;;2.30;1.42;;;;;;;26.52;38.84;99749.42;1735440;80;21016;-74
2021/06/12 11:02:30;;;;;;;1.92;1.50;;;;;;;26.81;38.86;99754.30;1747780;80;20992;-75
2021/06/12 11:05:03;;;;;;;2.67;1.80;;;;;;;26.84;38.92;99743.53;1736167;80;21174;-74
2021/06/12 11:07:32;;;;;;;1.85;1.55;;;;;;;26.89;39.58;99740.91;1753272;79;21829;-76
2021/06/12 11:10:22;;;;;;;1.70;1.45;;;;;;;27.05;39.30;99742.86;1767382;79;21455;-76
2021/06/12 11:12:56;;;;;;;2.58;1.50;;;;;;;27.20;37.08;99747.16;1754544;79;21032;-77
2021/06/12 11:15:30;;;;;;;7.85;1.50;;;;;;;27.16;36.18;99742.49;1756182;80;20969;-76
2021/06/12 11:18:21;;;;;;;1.60;1.35;;;;;;;27.04;36.09;99742.03;1736950;80;21087;-77
2021/06/12 11:21:06;;;;;;;1.80;1.50;;;;;;;27.05;36.16;99740.14;1757824;80;22617;-75
2021/06/12 11:23:48;;;;;;;1.30;1.20;;;;;;;27.11;36.94;99737.79;1755633;79;21059;-77
2021/06/12 11:26:15;;;;;;;2.90;1.42;;;;;;;27.14;35.96;99732.44;1752996;80;21381;-77
2021/06/12 11:28:42;;;;;;;2.77;1.55;;;;;;;27.15;37.69;99734.08;1748771;79;21407;-79
2021/06/12 11:31:28;;;;;;;1.62;1.20;;;;;;;27.34;37.66;99734.12;1762294;79;20980;-77
2021/06/12 11:34:18;;;;;;;3.22;1.50;;;;;;;27.52;35.61;99735.75;1729491;80;21799;-76
2021/06/12 11:36:49;;;;;;;2.42;1.62;;;;;;;27.73;36.46;99736.36;1731591;80;20944;-78
2021/06/12 11:39:15;;;;;;;1.42;1.10;;;;;;;27.71;35.64;99737.16;1715210;79;21100;-77
2021/06/12 11:41:42;;;;;;;1.62;1.47;;;;;;;27.49;33.54;99727.55;1681395;83;20996;-75
2021/06/12 11:44:09;;;;;;;2.80;1.40;;;;;;;27.31;33.26;99731.38;1728288;80;21031;-76